Plainview, Virginia
Current Conditions -  °F | °C
As of 11:35 PM on Thursday 20 Nov 2014 (Local Time) from KFYJ Reporting Station
Clear Clear  
Wind Chill: 39°   Ceiling: Unl
Heat Index: 39°   Visibility: 10mi
Dew Point: 26°   Wind: 0mph
Humidity: 59%   Direction: NA
Pressure: 30.11"   Gusts: NA
Location:  37.5357°N, 76.7136°W
Report Text: KFYJ 210435Z AUTO 00000KT 10SM CLR 04/M03 A3011 RMK AO2 T00381035
Loading
Personal Weather Stations






























Interactive Weather Map New forecast layout! Learn more

10-Day Weather Forecast

Advertisements
Track Severe Weather on mobile